Time;durP1;ratioP1;P1;durP2;ratioP2;P2;SDS_P1;SDS_P2;PMS_P1;PMS_P2;Temp;Humidity;BMP_temperature;BMP_pressure;BME280_temperature;BME280_humidity;BME280_pressure;Samples;Min_cycle;Max_cycle;Signal;HPM_P1;HPM_P2
2021/10/13 00:00:23;;;;;;;2.45;0.20;;;6.40;99.90;;;;;;5003438;28;20485;-80
2021/10/13 00:02:49;;;;;;;5.97;0.10;;;6.40;99.90;;;;;;5003256;28;20022;-79
2021/10/13 00:05:14;;;;;;;2.28;0.00;;;6.40;99.90;;;;;;5001074;28;20019;-79
2021/10/13 00:07:40;;;;;;;1.73;0.03;;;6.40;99.90;;;;;;4999418;28;20117;-79
2021/10/13 00:10:06;;;;;;;1.80;0.13;;;6.40;99.90;;;;;;5001203;28;20435;-79
2021/10/13 00:12:33;;;;;;;2.53;0.30;;;6.40;99.90;;;;;;5001957;28;20439;-77
2021/10/13 00:14:59;;;;;;;0.70;0.00;;;6.40;99.90;;;;;;5003165;28;20010;-78
2021/10/13 00:17:25;;;;;;;3.88;0.13;;;6.30;99.90;;;;;;5002292;28;20452;-79
2021/10/13 00:19:51;;;;;;;6.00;0.32;;;6.30;99.90;;;;;;4996520;28;20026;-79
2021/10/13 00:22:16;;;;;;;9.30;0.43;;;6.30;99.90;;;;;;4996967;28;20038;-79
2021/10/13 00:24:42;;;;;;;4.30;0.00;;;6.30;99.90;;;;;;4997585;28;20026;-80
2021/10/13 00:27:07;;;;;;;3.90;0.10;;;6.30;99.90;;;;;;4997926;28;20034;-80
2021/10/13 00:29:36;;;;;;;0.40;0.00;;;6.20;99.90;;;;;;4997376;28;20034;-79
2021/10/13 00:32:04;;;;;;;3.63;0.00;;;6.20;99.90;;;;;;4998181;28;20019;-79
2021/10/13 00:34:33;;;;;;;3.17;0.00;;;6.20;99.90;;;;;;4997253;28;20562;-79
2021/10/13 00:36:59;;;;;;;0.85;0.00;;;6.20;99.90;;;;;;4995999;28;20014;-79
2021/10/13 00:39:24;;;;;;;2.10;0.45;;;6.20;99.90;;;;;;4995966;28;20026;-78
2021/10/13 00:41:50;;;;;;;1.15;0.00;;;6.20;99.90;;;;;;4995995;28;20510;-78
2021/10/13 00:44:19;;;;;;;4.80;0.20;;;6.20;99.90;;;;;;4996154;28;20026;-79
2021/10/13 00:46:44;;;;;;;5.32;0.28;;;6.20;99.90;;;;;;4996197;28;20483;-79
2021/10/13 00:49:10;;;;;;;1.65;0.20;;;6.30;99.90;;;;;;4996171;28;20027;-79
2021/10/13 00:51:35;;;;;;;0.65;0.00;;;6.30;99.90;;;;;;4994270;28;20145;-79
2021/10/13 00:54:01;;;;;;;1.85;0.20;;;6.30;99.90;;;;;;4995906;28;20014;-78
2021/10/13 00:56:27;;;;;;;3.22;0.00;;;6.30;99.90;;;;;;4995706;28;20068;-78
2021/10/13 00:58:53;;;;;;;0.40;0.00;;;6.40;99.90;;;;;;4994436;28;20030;-78
2021/10/13 01:01:35;;;;;;;3.95;0.47;;;6.40;99.90;;;;;;4994224;28;20116;-78
2021/10/13 01:04:13;;;;;;;9.40;0.90;;;6.40;99.90;;;;;;4995601;28;20033;-78
2021/10/13 01:07:16;;;;;;;0.50;0.10;;;6.40;99.90;;;;;;4996082;28;20109;-78
2021/10/13 01:09:51;;;;;;;1.27;0.00;;;6.40;99.90;;;;;;4993702;28;20038;-78
2021/10/13 01:12:55;;;;;;;2.70;0.00;;;6.40;99.90;;;;;;4995475;28;20068;-78
2021/10/13 01:15:53;;;;;;;1.63;0.00;;;6.40;99.90;;;;;;4964396;28;20031;-78
2021/10/13 01:18:34;;;;;;;1.83;0.00;;;6.40;99.90;;;;;;4995391;28;20022;-78
2021/10/13 01:21:08;;;;;;;3.08;0.65;;;6.40;99.90;;;;;;4995364;28;20133;-78
2021/10/13 01:24:04;;;;;;;2.22;0.00;;;6.30;99.90;;;;;;4995932;28;20026;-78
2021/10/13 01:27:00;;;;;;;3.40;0.00;;;6.30;99.90;;;;;;4997529;28;20045;-80
2021/10/13 01:29:27;;;;;;;1.00;0.10;;;6.20;99.90;;;;;;4998864;28;20085;-79
2021/10/13 01:32:02;;;;;;;3.53;0.10;;;6.30;99.90;;;;;;4995711;28;20022;-79
2021/10/13 01:34:32;;;;;;;3.20;0.00;;;6.30;99.90;;;;;;4997749;28;20031;-79
2021/10/13 01:37:03;;;;;;;1.27;0.20;;;6.30;99.90;;;;;;4995631;28;20072;-78
2021/10/13 01:39:30;;;;;;;3.35;0.05;;;6.30;99.90;;;;;;4995454;28;20022;-78
2021/10/13 01:41:57;;;;;;;1.25;0.00;;;6.30;99.90;;;;;;4993890;28;20109;-78
2021/10/13 01:44:25;;;;;;;2.83;0.10;;;6.30;99.90;;;;;;4995715;28;20037;-80
2021/10/13 01:46:50;;;;;;;1.17;0.00;;;6.30;99.90;;;;;;4997864;28;20033;-79
2021/10/13 01:49:20;;;;;;;3.03;0.00;;;6.30;99.90;;;;;;4996761;28;20388;-80
2021/10/13 01:51:48;;;;;;;3.25;0.00;;;7.60;99.90;;;;;;4994632;28;20110;-79
2021/10/13 01:54:15;;;;;;;3.13;0.10;;;6.30;99.90;;;;;;4993877;28;20030;-79
2021/10/13 01:56:43;;;;;;;7.15;0.10;;;6.30;99.90;;;;;;4994506;28;20030;-78
2021/10/13 01:59:16;;;;;;;1.55;0.00;;;6.30;99.90;;;;;;4994536;28;20027;-78
2021/10/13 02:01:44;;;;;;;0.52;0.10;;;6.30;99.90;;;;;;4995583;28;20037;-78
2021/10/13 02:04:11;;;;;;;1.58;0.03;;;6.30;99.90;;;;;;4994325;28;20052;-78
2021/10/13 02:06:40;;;;;;;1.90;0.10;;;6.30;99.90;;;;;;4994229;28;20030;-78
2021/10/13 02:09:06;;;;;;;;;;;6.30;99.90;;;;;;4994630;28;20034;-78
2021/10/13 02:11:32;;;;;;;2.47;0.20;;;6.30;99.90;;;;;;4992838;28;20013;-78
2021/10/13 02:14:05;;;;;;;3.03;0.00;;;6.30;99.90;;;;;;4992915;28;20109;-79
2021/10/13 02:16:33;;;;;;;2.55;0.30;;;6.30;99.90;;;;;;4994478;28;20165;-79
2021/10/13 02:19:05;;;;;;;5.03;0.05;;;6.30;99.90;;;;;;4993166;28;20025;-79
2021/10/13 02:21:33;;;;;;;2.65;0.10;;;6.30;99.90;;;;;;4991957;28;20038;-78
2021/10/13 02:23:59;;;;;;;2.38;0.52;;;6.40;99.90;;;;;;4995309;28;20403;-78
2021/10/13 02:26:38;;;;;;;3.38;0.08;;;6.30;99.90;;;;;;4993502;28;20372;-78
2021/10/13 02:29:06;;;;;;;;;;;6.30;99.90;;;;;;4994103;28;20061;-80
2021/10/13 02:31:32;;;;;;;2.88;0.10;;;6.30;99.90;;;;;;4993334;28;20278;-79
2021/10/13 02:33:58;;;;;;;7.32;0.32;;;6.30;99.90;;;;;;4994315;28;20032;-79
2021/10/13 02:36:25;;;;;;;0.60;0.00;;;6.80;99.90;;;;;;4993321;28;20491;-79
2021/10/13 02:38:51;;;;;;;1.42;0.00;;;6.40;99.90;;;;;;4993382;28;20022;-79
2021/10/13 02:41:16;;;;;;;3.67;0.10;;;6.40;99.90;;;;;;4994534;28;20018;-79
2021/10/13 02:43:42;;;;;;;5.78;0.05;;;6.40;99.90;;;;;;4993557;28;20054;-78
2021/10/13 02:46:31;;;;;;;1.20;0.10;;;6.40;99.90;;;;;;4997174;28;20081;-78
2021/10/13 02:48:59;;;;;;;;;;;6.40;99.90;;;;;;4993645;28;20557;-78
2021/10/13 02:51:35;;;;;;;0.93;0.20;;;6.40;99.90;;;;;;4995123;28;20334;-79
2021/10/13 02:54:10;;;;;;;2.38;0.10;;;6.40;99.90;;;;;;4995535;28;20490;-79
2021/10/13 02:56:40;;;;;;;1.10;0.00;;;6.40;99.90;;;;;;4994868;28;20019;-78
2021/10/13 02:59:15;;;;;;;5.13;0.30;;;6.40;99.90;;;;;;4993591;28;20037;-79
2021/10/13 03:01:42;;;;;;;0.82;0.00;;;6.40;99.90;;;;;;4995182;28;20034;-79
2021/10/13 03:04:16;;;;;;;2.05;0.03;;;6.50;99.90;;;;;;4993962;28;20022;-78
2021/10/13 03:06:54;;;;;;;2.97;0.00;;;6.50;99.90;;;;;;4993803;28;20030;-79
2021/10/13 03:09:23;;;;;;;5.28;0.73;;;6.40;99.90;;;;;;4993839;28;20037;-79
2021/10/13 03:11:50;;;;;;;;;;;6.40;99.90;;;;;;4995320;28;20026;-79
2021/10/13 03:14:21;;;;;;;0.45;0.00;;;6.40;99.90;;;;;;4994933;28;19960;-79
2021/10/13 03:16:49;;;;;;;3.95;0.20;;;6.50;99.90;;;;;;4995036;28;20106;-79
2021/10/13 03:19:14;;;;;;;2.10;0.30;;;6.50;99.90;;;;;;4994970;28;20026;-80
2021/10/13 03:21:41;;;;;;;0.55;0.00;;;6.50;99.90;;;;;;4995890;28;20030;-79
2021/10/13 03:24:08;;;;;;;1.00;0.10;;;6.60;99.90;;;;;;4996572;28;20113;-79
2021/10/13 03:26:33;;;;;;;3.22;0.15;;;6.60;99.90;;;;;;4995158;28;20510;-79
2021/10/13 03:28:59;;;;;;;6.18;0.57;;;6.70;99.90;;;;;;4996478;28;20022;-79
2021/10/13 03:31:25;;;;;;;2.97;0.00;;;6.70;99.90;;;;;;4994646;28;20176;-79
2021/10/13 03:33:52;;;;;;;7.07;0.32;;;6.70;99.90;;;;;;4998547;28;20031;-79
2021/10/13 03:36:18;;;;;;;1.15;0.03;;;6.70;99.90;;;;;;4998858;28;20026;-79
2021/10/13 03:38:44;;;;;;;2.83;0.08;;;6.70;99.90;;;;;;4998160;28;20427;-79
2021/10/13 03:41:09;;;;;;;2.20;0.00;;;6.70;99.90;;;;;;4995929;28;20125;-77
2021/10/13 03:43:35;;;;;;;3.35;0.15;;;6.70;99.90;;;;;;4997109;28;20359;-78
2021/10/13 03:46:00;;;;;;;1.48;0.20;;;6.60;99.90;;;;;;4996674;28;20022;-79
2021/10/13 03:48:30;;;;;;;1.58;0.00;;;6.60;99.90;;;;;;4998151;28;20029;-78
2021/10/13 03:50:56;;;;;;;5.10;0.43;;;6.50;99.90;;;;;;4996352;28;20033;-79
2021/10/13 03:53:21;;;;;;;0.45;0.00;;;6.50;99.90;;;;;;4995807;28;20018;-78
2021/10/13 03:55:47;;;;;;;2.42;0.00;;;6.50;99.90;;;;;;4995416;28;20034;-78
2021/10/13 03:58:12;;;;;;;1.20;0.00;;;6.40;99.90;;;;;;4995368;28;20042;-78
2021/10/13 04:00:38;;;;;;;1.30;0.00;;;6.40;99.90;;;;;;4999671;28;20026;-75
2021/10/13 04:03:03;;;;;;;1.48;0.10;;;6.40;99.90;;;;;;5001648;28;20031;-74
2021/10/13 04:05:29;;;;;;;2.40;0.10;;;6.30;99.90;;;;;;5001864;28;20029;-76
2021/10/13 04:07:54;;;;;;;1.70;0.00;;;6.30;99.90;;;;;;4999907;28;20032;-77
2021/10/13 04:10:20;;;;;;;1.85;0.28;;;6.30;99.90;;;;;;4996416;28;20026;-77
2021/10/13 04:12:45;;;;;;;0.60;0.00;;;6.30;99.90;;;;;;4996341;28;20535;-77
2021/10/13 04:15:11;;;;;;;0.70;0.00;;;6.30;99.90;;;;;;4995382;28;20021;-77
2021/10/13 04:17:37;;;;;;;2.42;0.20;;;6.30;99.90;;;;;;4996651;28;20042;-77
2021/10/13 04:20:06;;;;;;;5.05;0.10;;;6.30;99.90;;;;;;4996387;28;20057;-78
2021/10/13 04:22:31;;;;;;;2.95;0.20;;;6.30;99.90;;;;;;4997186;28;20049;-77
2021/10/13 04:24:57;;;;;;;4.35;0.45;;;6.30;99.90;;;;;;4996607;28;20527;-77
2021/10/13 04:27:23;;;;;;;1.35;0.10;;;6.30;99.90;;;;;;4996984;28;20076;-77
2021/10/13 04:29:48;;;;;;;13.48;0.22;;;6.30;99.90;;;;;;4996590;28;20558;-77
2021/10/13 04:32:14;;;;;;;2.60;0.00;;;6.30;99.90;;;;;;4995333;28;20480;-77
2021/10/13 04:34:39;;;;;;;3.88;0.60;;;6.30;99.90;;;;;;4995257;28;20028;-77
2021/10/13 04:37:06;;;;;;;3.40;0.10;;;6.20;99.90;;;;;;4996411;28;20026;-78
2021/10/13 04:39:31;;;;;;;1.25;0.00;;;6.20;99.90;;;;;;4994673;28;20383;-78
2021/10/13 04:41:57;;;;;;;4.00;0.10;;;6.20;99.90;;;;;;4994652;28;20076;-79
2021/10/13 04:44:23;;;;;;;1.23;0.30;;;6.20;99.90;;;;;;4995313;28;20090;-78
2021/10/13 04:46:48;;;;;;;2.25;0.00;;;6.20;99.90;;;;;;4996135;28;20503;-78
2021/10/13 04:49:14;;;;;;;1.75;0.30;;;6.20;99.90;;;;;;4995620;28;20022;-78
2021/10/13 04:51:39;;;;;;;1.73;0.00;;;6.10;99.90;;;;;;4994079;28;20022;-77
2021/10/13 04:54:05;;;;;;;2.05;0.00;;;6.10;99.90;;;;;;4994192;28;20117;-78
2021/10/13 04:56:30;;;;;;;2.38;0.10;;;6.00;99.90;;;;;;4996009;28;20022;-78
2021/10/13 04:58:56;;;;;;;13.02;0.40;;;6.10;99.90;;;;;;4994248;28;20019;-78
2021/10/13 05:01:21;;;;;;;0.77;0.00;;;6.00;99.90;;;;;;4994285;28;20037;-78
2021/10/13 05:03:47;;;;;;;1.92;0.00;;;6.00;99.90;;;;;;4995925;28;20035;-78
2021/10/13 05:06:13;;;;;;;1.58;0.20;;;5.90;99.90;;;;;;4993945;28;20431;-78
2021/10/13 05:08:38;;;;;;;0.88;0.28;;;5.80;99.90;;;;;;4995152;28;20030;-78
2021/10/13 05:11:04;;;;;;;0.85;0.10;;;5.80;99.90;;;;;;4995073;28;20026;-78
2021/10/13 05:13:29;;;;;;;2.72;0.10;;;5.80;99.90;;;;;;4995497;28;20500;-78
2021/10/13 05:15:55;;;;;;;2.10;0.00;;;5.80;99.90;;;;;;4995443;28;20023;-79
2021/10/13 05:18:21;;;;;;;0.20;0.00;;;5.80;99.90;;;;;;4993709;28;20057;-78
2021/10/13 05:20:47;;;;;;;1.00;0.03;;;5.80;99.90;;;;;;4993628;28;20390;-74
2021/10/13 05:23:12;;;;;;;4.45;0.28;;;5.70;99.90;;;;;;4995006;28;20101;-78
2021/10/13 05:25:38;;;;;;;5.45;0.20;;;5.70;99.90;;;;;;4995028;28;20021;-78
2021/10/13 05:28:04;;;;;;;4.78;0.10;;;5.70;99.90;;;;;;4995745;28;20026;-79
2021/10/13 05:30:29;;;;;;;2.47;0.30;;;5.80;99.90;;;;;;4994197;28;20033;-79
2021/10/13 05:32:55;;;;;;;1.50;0.30;;;5.80;99.90;;;;;;4994348;28;20372;-79
2021/10/13 05:35:20;;;;;;;2.38;0.03;;;5.80;99.90;;;;;;4995214;28;20018;-78
2021/10/13 05:37:46;;;;;;;4.18;0.38;;;5.90;99.90;;;;;;4994664;28;20039;-78
2021/10/13 05:40:12;;;;;;;8.30;0.50;;;6.00;99.90;;;;;;4994625;28;20026;-75
2021/10/13 05:42:38;;;;;;;3.78;0.10;;;6.00;99.90;;;;;;4994677;28;20026;-78
2021/10/13 05:45:04;;;;;;;3.53;0.10;;;6.10;99.90;;;;;;4993505;28;20026;-78
2021/10/13 05:47:30;;;;;;;6.78;0.13;;;6.20;99.90;;;;;;4995115;28;20041;-77
2021/10/13 05:49:55;;;;;;;1.65;0.20;;;6.20;99.90;;;;;;4993554;28;20034;-79
2021/10/13 05:52:21;;;;;;;2.30;0.73;;;6.30;99.90;;;;;;4993459;28;20113;-76
2021/10/13 05:54:46;;;;;;;4.43;0.00;;;6.30;99.90;;;;;;4994092;28;20023;-78
2021/10/13 05:57:12;;;;;;;4.93;0.20;;;6.40;99.90;;;;;;4994299;28;20030;-78
2021/10/13 05:59:38;;;;;;;1.10;0.30;;;6.40;99.90;;;;;;4995644;28;20118;-79
2021/10/13 06:02:04;;;;;;;2.72;0.28;;;6.40;99.90;;;;;;4993866;28;20037;-78
2021/10/13 06:04:30;;;;;;;2.42;0.20;;;6.50;99.90;;;;;;4994301;28;20472;-79
2021/10/13 06:06:55;;;;;;;2.58;0.73;;;6.50;99.90;;;;;;4994114;28;20492;-79
2021/10/13 06:09:21;;;;;;;2.80;0.70;;;6.50;99.90;;;;;;4995778;28;20029;-79
2021/10/13 06:11:46;;;;;;;3.05;0.10;;;6.50;99.90;;;;;;4994765;28;20025;-79
2021/10/13 06:14:12;;;;;;;2.40;0.20;;;6.50;99.90;;;;;;4994245;28;20018;-79
2021/10/13 06:16:38;;;;;;;2.88;0.28;;;6.50;99.90;;;;;;4995149;28;20054;-80
2021/10/13 06:19:03;;;;;;;2.83;0.30;;;6.50;99.90;;;;;;4995523;28;20081;-77
2021/10/13 06:21:29;;;;;;;3.80;0.15;;;6.50;99.90;;;;;;4994885;28;20384;-80
2021/10/13 06:23:54;;;;;;;3.58;0.60;;;6.40;99.90;;;;;;4996905;28;20022;-79
2021/10/13 06:26:21;;;;;;;3.03;0.40;;;6.50;99.90;;;;;;4995757;28;20030;-79
2021/10/13 06:28:47;;;;;;;1.33;0.20;;;6.50;99.90;;;;;;4996993;28;20368;-79
2021/10/13 06:31:13;;;;;;;1.88;0.10;;;6.60;99.90;;;;;;4994658;28;20476;-79
2021/10/13 06:33:38;;;;;;;3.70;0.40;;;6.60;99.90;;;;;;4994456;28;20037;-77
2021/10/13 06:36:05;;;;;;;2.53;0.57;;;6.70;99.90;;;;;;4993859;28;20073;-77
2021/10/13 06:38:34;;;;;;;11.73;0.73;;;6.70;99.90;;;;;;4993926;28;20015;-76
2021/10/13 06:41:00;;;;;;;;;;;6.70;99.90;;;;;;4994418;28;20124;-77
2021/10/13 06:43:27;;;;;;;2.20;0.50;;;6.80;99.90;;;;;;4994087;28;19906;-76
2021/10/13 06:45:53;;;;;;;2.70;0.45;;;6.80;99.90;;;;;;4993973;28;20050;-77
2021/10/13 06:48:20;;;;;;;2.05;0.57;;;6.80;99.90;;;;;;4993662;28;20073;-78
2021/10/13 06:50:45;;;;;;;2.28;0.40;;;6.80;99.90;;;;;;4993742;28;20392;-78
2021/10/13 06:53:11;;;;;;;0.88;0.10;;;6.90;99.90;;;;;;4993706;28;20030;-77
2021/10/13 06:55:38;;;;;;;4.50;0.35;;;7.00;99.90;;;;;;4993791;28;20031;-78
2021/10/13 06:58:04;;;;;;;3.17;0.40;;;7.10;99.90;;;;;;4993657;28;20375;-77
2021/10/13 07:00:29;;;;;;;2.88;0.28;;;7.20;99.90;;;;;;4993594;28;20030;-78
2021/10/13 07:02:55;;;;;;;1.92;0.20;;;7.30;99.90;;;;;;4993574;28;20093;-77
2021/10/13 07:05:21;;;;;;;7.43;0.38;;;7.40;99.90;;;;;;4993833;28;20118;-77
2021/10/13 07:07:48;;;;;;;3.72;0.50;;;7.60;99.90;;;;;;4995225;28;20133;-77
2021/10/13 07:10:15;;;;;;;5.03;0.60;;;7.70;99.90;;;;;;4996035;28;20026;-77
2021/10/13 07:12:40;;;;;;;3.33;0.30;;;7.90;99.90;;;;;;4996193;28;20037;-77
2021/10/13 07:15:07;;;;;;;5.15;0.30;;;8.00;99.90;;;;;;4997245;28;20018;-77
2021/10/13 07:17:33;;;;;;;3.10;0.60;;;8.10;99.90;;;;;;4997157;28;20499;-77
2021/10/13 07:20:01;;;;;;;4.07;0.40;;;8.30;99.90;;;;;;4997681;28;20018;-77
2021/10/13 07:22:27;;;;;;;5.93;1.00;;;8.50;99.90;;;;;;4995797;28;20034;-78
2021/10/13 07:24:53;;;;;;;7.88;0.65;;;8.70;99.90;;;;;;4997111;28;20048;-77
2021/10/13 07:27:19;;;;;;;3.05;0.95;;;8.90;99.90;;;;;;4997049;28;20077;-77
2021/10/13 07:29:46;;;;;;;6.93;0.20;;;9.00;99.90;;;;;;4996897;28;20033;-78
2021/10/13 07:32:12;;;;;;;7.80;0.63;;;9.10;99.90;;;;;;4996770;28;20117;-79
2021/10/13 07:34:37;;;;;;;6.75;0.32;;;9.30;99.90;;;;;;4997542;28;20050;-78
2021/10/13 07:37:04;;;;;;;2.05;0.38;;;9.50;99.90;;;;;;4996890;28;20023;-78
2021/10/13 07:39:30;;;;;;;3.50;0.30;;;9.60;99.90;;;;;;4996810;28;20022;-78
2021/10/13 07:41:56;;;;;;;1.58;0.10;;;9.70;99.90;;;;;;4996725;28;20026;-75
2021/10/13 07:44:21;;;;;;;3.63;0.47;;;9.80;99.90;;;;;;4997297;28;20026;-78
2021/10/13 07:46:48;;;;;;;2.97;0.10;;;9.90;99.90;;;;;;5000986;28;20034;-77
2021/10/13 07:49:13;;;;;;;3.78;0.55;;;10.00;99.90;;;;;;5001251;28;20022;-75
2021/10/13 07:51:39;;;;;;;4.78;0.82;;;10.10;99.90;;;;;;4998648;28;20026;-77
2021/10/13 07:54:05;;;;;;;3.20;0.40;;;10.20;99.90;;;;;;4999952;28;20026;-76
2021/10/13 07:56:31;;;;;;;4.22;0.77;;;10.40;99.90;;;;;;5000292;28;20128;-74
2021/10/13 07:58:56;;;;;;;3.17;0.47;;;10.60;99.90;;;;;;4997463;28;20427;-75
2021/10/13 08:01:22;;;;;;;4.38;0.32;;;10.80;99.90;;;;;;4996266;28;20026;-75
2021/10/13 08:03:47;;;;;;;3.17;0.38;;;10.90;99.90;;;;;;4995634;28;20029;-76
2021/10/13 08:06:13;;;;;;;10.02;0.82;;;11.00;99.90;;;;;;4995487;28;20022;-76
2021/10/13 08:08:39;;;;;;;2.08;0.35;;;11.00;99.90;;;;;;4996187;28;20029;-76
2021/10/13 08:11:05;;;;;;;4.05;0.20;;;11.10;99.90;;;;;;4996084;28;20034;-75
2021/10/13 08:13:32;;;;;;;3.45;0.20;;;11.10;99.90;;;;;;4996019;28;20030;-76
2021/10/13 08:15:58;;;;;;;4.97;1.10;;;11.20;99.90;;;;;;4994848;28;20476;-76
2021/10/13 08:18:24;;;;;;;6.45;0.40;;;11.20;99.90;;;;;;4996033;28;20077;-76
2021/10/13 08:20:50;;;;;;;4.65;0.40;;;11.20;99.90;;;;;;4995974;28;20607;-76
2021/10/13 08:23:16;;;;;;;5.43;0.30;;;11.30;99.90;;;;;;4995990;28;20392;-76
2021/10/13 08:25:42;;;;;;;6.30;0.10;;;11.30;99.90;;;;;;4996485;28;20030;-75
2021/10/13 08:28:07;;;;;;;6.03;0.17;;;11.40;99.90;;;;;;4994625;28;20452;-76
2021/10/13 08:30:33;;;;;;;5.28;0.65;;;11.40;99.90;;;;;;4995587;28;20467;-74
2021/10/13 08:32:58;;;;;;;2.63;0.13;;;11.50;99.90;;;;;;4995924;28;20053;-76
2021/10/13 08:35:24;;;;;;;2.20;0.10;;;11.50;99.90;;;;;;4996218;28;20022;-74
2021/10/13 08:37:49;;;;;;;4.05;0.00;;;11.60;99.90;;;;;;4996055;28;20066;-73
2021/10/13 08:40:15;;;;;;;4.78;0.20;;;11.60;99.90;;;;;;4994396;28;20471;-71
2021/10/13 08:42:53;;;;;;;5.15;0.40;;;11.70;99.90;;;;;;4995891;28;20084;-74
2021/10/13 08:45:19;;;;;;;1.33;0.17;;;11.90;99.90;;;;;;4996044;28;20062;-74
2021/10/13 08:47:44;;;;;;;1.05;0.00;;;12.00;99.90;;;;;;4994274;28;20026;-74
2021/10/13 08:50:10;;;;;;;6.10;0.00;;;12.20;99.90;;;;;;4994189;28;20105;-76
2021/10/13 08:52:35;;;;;;;2.47;0.00;;;12.30;99.90;;;;;;4995623;28;20419;-75
2021/10/13 08:55:01;;;;;;;1.80;0.63;;;12.40;99.90;;;;;;4994411;28;20025;-75
2021/10/13 08:57:28;;;;;;;1.63;0.00;;;12.40;99.90;;;;;;4996158;28;20026;-76
2021/10/13 08:59:54;;;;;;;3.13;0.00;;;12.50;99.90;;;;;;4994124;28;20061;-75
2021/10/13 09:02:44;;;;;;;4.22;0.35;;;12.50;99.90;;;;;;4995358;28;20030;-76
2021/10/13 09:05:13;;;;;;;5.70;0.10;;;12.60;99.90;;;;;;4995461;28;20022;-77
2021/10/13 09:08:00;;;;;;;1.75;0.28;;;12.70;99.90;;;;;;4993956;28;20037;-77
2021/10/13 09:10:31;;;;;;;4.82;0.10;;;12.80;99.90;;;;;;4993727;28;20038;-76
2021/10/13 09:12:58;;;;;;;8.10;0.32;;;13.00;99.90;;;;;;4994978;28;20019;-76
2021/10/13 09:15:27;;;;;;;1.50;0.00;;;13.10;99.90;;;;;;4994260;28;20050;-76
2021/10/13 09:17:57;;;;;;;1.00;0.08;;;13.20;99.90;;;;;;4994871;28;20554;-76
2021/10/13 09:20:25;;;;;;;0.32;0.00;;;13.20;99.90;;;;;;4994997;28;20411;-76
2021/10/13 09:23:18;;;;;;;1.27;0.00;;;13.40;99.90;;;;;;4995151;28;20018;-75
2021/10/13 09:26:01;;;;;;;1.02;0.00;;;13.50;99.90;;;;;;4993690;28;20479;-76
2021/10/13 09:28:27;;;;;;;0.35;0.00;;;13.80;99.90;;;;;;4993563;28;20023;-76
2021/10/13 09:30:52;;;;;;;0.10;0.00;;;14.10;99.90;;;;;;4994059;28;20031;-76
2021/10/13 09:33:19;;;;;;;0.85;0.00;;;14.20;99.90;;;;;;4993215;28;20026;-76
2021/10/13 09:35:51;;;;;;;2.40;0.00;;;14.30;99.90;;;;;;4994639;28;20392;-76
2021/10/13 09:38:21;;;;;;;2.78;0.00;;;14.30;99.90;;;;;;4994639;28;20442;-78
2021/10/13 09:40:48;;;;;;;5.82;0.10;;;14.30;99.90;;;;;;4995085;28;20117;-77
2021/10/13 09:43:26;;;;;;;0.55;0.00;;;14.40;99.90;;;;;;4993243;28;20029;-77
2021/10/13 09:46:10;;;;;;;1.17;0.00;;;14.40;99.90;;;;;;4994457;28;20030;-74
2021/10/13 09:48:38;;;;;;;0.65;0.10;;;14.40;99.90;;;;;;4994370;28;20033;-75
2021/10/13 09:51:15;;;;;;;1.77;0.22;;;14.40;99.90;;;;;;4994657;28;20031;-75
2021/10/13 09:53:42;;;;;;;0.32;0.00;;;14.60;99.90;;;;;;4993107;28;20022;-76
2021/10/13 09:56:30;;;;;;;5.07;0.20;;;14.70;99.90;;;;;;4992941;28;20483;-76
2021/10/13 09:59:09;;;;;;;3.85;0.00;;;14.70;99.90;;;;;;4995046;28;20092;-76
2021/10/13 10:01:36;;;;;;;4.90;0.00;;;14.70;99.90;;;;;;4994463;28;20037;-77
2021/10/13 10:04:03;;;;;;;3.45;0.00;;;14.70;99.90;;;;;;4994338;28;20364;-77
2021/10/13 10:06:30;;;;;;;0.57;0.00;;;14.80;99.90;;;;;;4992831;28;20034;-77
2021/10/13 10:08:56;;;;;;;1.92;0.20;;;14.90;99.90;;;;;;4994327;28;20031;-77
2021/10/13 10:11:37;;;;;;;1.15;0.00;;;15.20;99.90;;;;;;4994480;28;20108;-76
2021/10/13 10:14:05;;;;;;;1.00;0.00;;;15.40;99.90;;;;;;4993976;28;20499;-76
2021/10/13 10:16:37;;;;;;;0.00;0.00;;;15.70;99.90;;;;;;4994227;28;20049;-76
2021/10/13 10:19:25;;;;;;;3.28;0.00;;;15.80;99.90;;;;;;4992538;28;20018;-75
2021/10/13 10:22:12;;;;;;;0.80;0.00;;;15.80;99.90;;;;;;4992689;28;20499;-75
2021/10/13 10:24:52;;;;;;;1.40;0.00;;;15.70;99.90;;;;;;4992858;28;20053;-77
2021/10/13 10:27:23;;;;;;;0.00;0.00;;;15.60;99.90;;;;;;4994569;28;20319;-77
2021/10/13 10:29:59;;;;;;;2.08;0.00;;;15.40;99.90;;;;;;4994153;28;20388;-76
2021/10/13 10:32:25;;;;;;;1.27;0.00;;;15.30;99.90;;;;;;4992450;28;20041;-76
2021/10/13 10:35:06;;;;;;;2.63;0.08;;;15.30;99.90;;;;;;4994385;28;20026;-76
2021/10/13 10:37:45;;;;;;;1.95;0.00;;;15.30;99.90;;;;;;4992614;28;20022;-76
2021/10/13 10:40:19;;;;;;;2.47;0.00;;;15.40;99.90;;;;;;4994111;28;20050;-76
2021/10/13 10:42:46;;;;;;;0.60;0.00;;;15.60;99.90;;;;;;4996934;28;20022;-76
2021/10/13 10:45:16;;;;;;;0.93;0.17;;;15.60;99.90;;;;;;4998286;28;20029;-76
2021/10/13 10:48:20;;;;;;;1.10;0.00;;;15.80;99.90;;;;;;4997930;28;20046;-76
2021/10/13 10:50:57;;;;;;;1.08;0.00;;;16.10;99.90;;;;;;4956661;28;20114;-76
2021/10/13 10:53:28;;;;;;;3.22;0.70;;;16.30;99.90;;;;;;4990587;28;20038;-77
2021/10/13 10:55:56;;;;;;;1.20;0.00;;;16.30;99.90;;;;;;4996381;28;20019;-77
2021/10/13 10:58:28;;;;;;;1.65;0.00;;;16.10;99.90;;;;;;4996122;28;20114;-77
2021/10/13 11:01:15;;;;;;;2.10;0.00;;;15.90;99.90;;;;;;4996300;28;20031;-77
2021/10/13 11:03:42;;;;;;;2.03;0.00;;;15.50;99.90;;;;;;4996115;28;20037;-75
2021/10/13 11:06:21;;;;;;;2.03;0.00;;;15.20;99.90;;;;;;4996185;28;20048;-75
2021/10/13 11:09:08;;;;;;;3.45;0.00;;;14.70;99.90;;;;;;4997800;28;20083;-75
2021/10/13 11:11:49;;;;;;;1.00;0.00;;;14.30;99.90;;;;;;4996401;28;20034;-75
2021/10/13 11:14:23;;;;;;;1.45;0.00;;;14.20;99.90;;;;;;4998098;28;20029;-75
2021/10/13 11:16:58;;;;;;;3.25;0.20;;;14.00;99.90;;;;;;4996269;28;20050;-75
2021/10/13 11:19:30;;;;;;;2.13;0.00;;;14.00;99.90;;;;;;4996016;28;20562;-75
2021/10/13 11:22:03;;;;;;;5.47;0.43;;;14.10;99.90;;;;;;4995980;28;20073;-74
2021/10/13 11:24:29;;;;;;;1.27;0.00;;;14.10;99.90;;;;;;4996053;28;20038;-74
2021/10/13 11:26:55;;;;;;;5.90;0.40;;;14.30;99.90;;;;;;4996952;28;20026;-74
2021/10/13 11:29:26;;;;;;;2.05;0.10;;;14.40;99.90;;;;;;4997242;28;20495;-74
2021/10/13 11:32:07;;;;;;;1.33;0.00;;;14.30;99.90;;;;;;4996999;28;20038;-75
2021/10/13 11:34:32;;;;;;;1.85;0.28;;;14.40;99.90;;;;;;4996825;28;20030;-76
2021/10/13 11:36:58;;;;;;;0.68;0.10;;;14.60;99.90;;;;;;4996768;28;20037;-76
2021/10/13 11:39:27;;;;;;;1.33;0.15;;;14.70;99.90;;;;;;4997268;28;20345;-76
2021/10/13 11:41:53;;;;;;;2.90;0.00;;;14.90;99.90;;;;;;4996791;28;20027;-76
2021/10/13 11:44:21;;;;;;;2.28;0.17;;;14.90;99.90;;;;;;4996652;28;20510;-76
2021/10/13 11:46:57;;;;;;;1.98;0.00;;;14.90;99.90;;;;;;4995532;28;20033;-78
2021/10/13 11:49:23;;;;;;;2.60;0.00;;;14.90;99.90;;;;;;4996655;28;20037;-77
2021/10/13 11:52:12;;;;;;;0.63;0.00;;;15.10;99.90;;;;;;4994969;28;20018;-76
2021/10/13 11:54:39;;;;;;;5.10;0.15;;;15.30;99.90;;;;;;4995243;28;20364;-76
2021/10/13 11:57:05;;;;;;;2.40;0.13;;;15.50;99.90;;;;;;4995181;28;20100;-76
2021/10/13 11:59:31;;;;;;;1.90;0.00;;;15.80;99.90;;;;;;4996545;28;20030;-76
2021/10/13 12:02:09;;;;;;;0.98;0.00;;;16.00;99.90;;;;;;4994965;28;20034;-75
2021/10/13 12:04:52;;;;;;;0.70;0.00;;;15.90;99.90;;;;;;4997163;28;20027;-75
2021/10/13 12:07:23;;;;;;;2.20;0.00;;;15.90;99.90;;;;;;4996616;28;20026;-76
2021/10/13 12:10:02;;;;;;;2.40;0.00;;;15.90;99.90;;;;;;5001032;28;20045;-76
2021/10/13 12:12:29;;;;;;;4.57;0.03;;;16.00;99.90;;;;;;4999623;28;20479;-76
2021/10/13 12:14:55;;;;;;;3.50;0.00;;;16.10;99.90;;;;;;5001317;28;20550;-76
2021/10/13 12:17:32;;;;;;;1.25;0.00;;;16.00;99.90;;;;;;5000176;28;20022;-77
2021/10/13 12:20:00;;;;;;;1.85;0.17;;;15.70;99.90;;;;;;5000511;28;20018;-75
2021/10/13 12:22:27;;;;;;;2.72;0.00;;;15.40;99.90;;;;;;4999941;28;20029;-76
2021/10/13 12:24:52;;;;;;;3.78;0.00;;;15.10;99.90;;;;;;5000675;28;20072;-76
2021/10/13 12:27:31;;;;;;;1.08;0.00;;;14.80;99.90;;;;;;4998928;28;20134;-76
2021/10/13 12:29:58;;;;;;;1.77;0.00;;;14.60;99.90;;;;;;4998471;28;20049;-76
2021/10/13 12:32:26;;;;;;;4.05;0.55;;;14.40;99.90;;;;;;4999549;28;20070;-75
2021/10/13 12:34:52;;;;;;;0.85;0.00;;;14.20;99.90;;;;;;5001761;28;20022;-78
2021/10/13 12:37:21;;;;;;;1.15;0.00;;;14.00;99.90;;;;;;5004850;28;20101;-77
2021/10/13 12:39:47;;;;;;;3.42;0.00;;;13.90;99.90;;;;;;4999847;28;20057;-75
2021/10/13 12:42:13;;;;;;;0.85;0.00;;;13.90;99.90;;;;;;5000114;28;20030;-76
2021/10/13 12:44:41;;;;;;;3.08;0.00;;;13.80;99.90;;;;;;4999281;28;20073;-76
2021/10/13 12:47:15;;;;;;;4.05;0.00;;;13.80;99.90;;;;;;4998706;28;20025;-76
2021/10/13 12:49:54;;;;;;;2.80;0.00;;;13.80;99.90;;;;;;4998894;28;20505;-76
2021/10/13 12:52:19;;;;;;;;;;;13.80;99.90;;;;;;4999790;28;20030;-76
2021/10/13 12:54:47;;;;;;;1.33;0.00;;;14.00;99.90;;;;;;4999243;28;20331;-76
2021/10/13 12:57:29;;;;;;;0.50;0.00;;;14.00;99.90;;;;;;4999130;28;20033;-76
2021/10/13 12:59:56;;;;;;;7.88;0.80;;;14.20;99.90;;;;;;4998875;28;20052;-76
2021/10/13 13:02:22;;;;;;;4.60;0.10;;;14.20;99.90;;;;;;4999522;28;20391;-76
2021/10/13 13:04:49;;;;;;;1.25;0.00;;;14.30;99.90;;;;;;4999811;28;20027;-76